Time;durP1;ratioP1;P1;durP2;ratioP2;P2;SDS_P1;SDS_P2;PMS_P1;PMS_P2;Temp;Humidity;BMP_temperature;BMP_pressure;BME280_temperature;BME280_humidity;BME280_pressure;Samples;Min_cycle;Max_cycle;Signal;HPM_P1;HPM_P2
2022/03/13 00:01:32;;;;;;;70.90;33.73;;;;;;;;;;775270;179;919763;-62
2022/03/13 00:03:57;;;;;;;66.47;33.77;;;;;;;;;;779383;178;1021308;-61
2022/03/13 00:06:22;;;;;;;77.77;35.43;;;;;;;;;;773420;180;918141;-62
2022/03/13 00:08:52;;;;;;;53.57;30.53;;;;;;;;;;773701;179;918576;-65
2022/03/13 00:11:17;;;;;;;55.87;31.10;;;;;;;;;;769031;180;1093243;-61
2022/03/13 00:13:47;;;;;;;59.73;31.33;;;;;;;;;;769293;181;919880;-62
2022/03/13 00:16:13;;;;;;;70.03;34.10;;;;;;;;;;766588;181;919739;-63
2022/03/13 00:18:36;;;;;;;55.53;32.10;;;;;;;;;;776379;179;919856;-63
2022/03/13 00:21:03;;;;;;;58.17;34.10;;;;;;;;;;788406;179;630297;-62
2022/03/13 00:23:28;;;;;;;71.47;31.73;;;;;;;;;;783069;179;625127;-62
2022/03/13 00:25:54;;;;;;;55.03;30.83;;;;;;;;;;783062;179;622780;-63
2022/03/13 00:28:20;;;;;;;60.23;30.07;;;;;;;;;;776436;179;632438;-63
2022/03/13 00:30:46;;;;;;;63.20;32.87;;;;;;;;;;781363;177;620623;-63
2022/03/13 00:33:12;;;;;;;56.83;30.10;;;;;;;;;;778192;180;916025;-61
2022/03/13 00:35:38;;;;;;;49.83;29.87;;;;;;;;;;775630;178;916693;-61
2022/03/13 00:38:03;;;;;;;57.47;31.60;;;;;;;;;;779765;179;614986;-62
2022/03/13 00:40:29;;;;;;;55.45;29.77;;;;;;;;;;780797;179;915517;-63
2022/03/13 00:42:55;;;;;;;65.27;33.47;;;;;;;;;;784261;179;633989;-62
2022/03/13 00:45:21;;;;;;;54.95;29.90;;;;;;;;;;778852;178;919974;-61
2022/03/13 00:47:47;;;;;;;51.00;27.80;;;;;;;;;;777855;179;1123441;-63
2022/03/13 00:50:12;;;;;;;53.30;29.10;;;;;;;;;;778986;179;1019076;-63
2022/03/13 00:52:39;;;;;;;55.75;30.67;;;;;;;;;;772625;179;920544;-61
2022/03/13 00:55:05;;;;;;;59.07;29.37;;;;;;;;;;768983;180;919788;-63
2022/03/13 00:57:32;;;;;;;61.53;32.13;;;;;;;;;;774553;178;919876;-62
2022/03/13 00:59:57;;;;;;;54.67;30.43;;;;;;;;;;771475;178;919782;-62
2022/03/13 01:02:23;;;;;;;51.83;29.93;;;;;;;;;;785546;179;816976;-62
2022/03/13 01:04:49;;;;;;;55.00;31.00;;;;;;;;;;777020;179;919815;-63
2022/03/13 01:07:14;;;;;;;49.13;28.60;;;;;;;;;;769239;180;920418;-61
2022/03/13 01:09:40;;;;;;;56.37;28.40;;;;;;;;;;781539;180;918709;-63
2022/03/13 01:12:06;;;;;;;67.33;31.87;;;;;;;;;;767989;180;1020400;-62
2022/03/13 01:14:34;;;;;;;63.47;29.50;;;;;;;;;;773090;181;945001;-63
2022/03/13 01:16:59;;;;;;;50.22;27.98;;;;;;;;;;774143;180;913007;-62
2022/03/13 01:19:25;;;;;;;51.33;27.30;;;;;;;;;;775671;180;918548;-63
2022/03/13 01:21:51;;;;;;;48.03;27.73;;;;;;;;;;769832;180;1021746;-63
2022/03/13 01:24:16;;;;;;;60.53;28.17;;;;;;;;;;765604;179;919762;-62
2022/03/13 01:26:42;;;;;;;51.73;29.07;;;;;;;;;;783231;177;919610;-62
2022/03/13 01:29:08;;;;;;;57.13;30.53;;;;;;;;;;773299;180;919690;-62
2022/03/13 01:31:34;;;;;;;58.27;30.93;;;;;;;;;;770863;179;912910;-60
2022/03/13 01:34:00;;;;;;;54.60;28.80;;;;;;;;;;779365;180;681498;-62
2022/03/13 01:36:26;;;;;;;55.03;27.97;;;;;;;;;;777698;180;627180;-63
2022/03/13 01:38:52;;;;;;;49.33;30.60;;;;;;;;;;784062;179;628817;-63
2022/03/13 01:41:18;;;;;;;56.30;31.10;;;;;;;;;;770978;180;616913;-62
2022/03/13 01:43:44;;;;;;;54.57;29.63;;;;;;;;;;771760;178;916324;-62
2022/03/13 01:46:09;;;;;;;48.53;28.35;;;;;;;;;;774016;177;916403;-65
2022/03/13 01:48:38;;;;;;;69.83;31.80;;;;;;;;;;776623;179;920985;-62
2022/03/13 01:51:05;;;;;;;57.87;30.30;;;;;;;;;;782300;180;919224;-63
2022/03/13 01:53:31;;;;;;;53.97;29.63;;;;;;;;;;776111;180;920252;-63
2022/03/13 01:55:56;;;;;;;56.93;27.73;;;;;;;;;;776163;180;920184;-61
2022/03/13 01:58:21;;;;;;;47.47;27.75;;;;;;;;;;779415;180;925063;-63
2022/03/13 02:00:47;;;;;;;56.13;28.40;;;;;;;;;;764080;181;925487;-63
2022/03/13 02:03:15;;;;;;;56.78;32.38;;;;;;;;;;769669;181;923740;-61
2022/03/13 02:05:39;;;;;;;57.63;30.17;;;;;;;;;;774533;181;920248;-62
2022/03/13 02:08:05;;;;;;;51.77;27.43;;;;;;;;;;766061;181;919741;-61
2022/03/13 02:10:31;;;;;;;54.72;27.48;;;;;;;;;;754972;181;1124248;-60
2022/03/13 02:12:57;;;;;;;49.77;27.17;;;;;;;;;;757265;181;918696;-61
2022/03/13 02:15:22;;;;;;;45.90;28.07;;;;;;;;;;764940;183;918980;-61
2022/03/13 02:17:48;;;;;;;54.50;26.60;;;;;;;;;;759284;181;918804;-62
2022/03/13 02:20:14;;;;;;;51.60;28.70;;;;;;;;;;756178;185;922529;-61
2022/03/13 02:22:43;;;;;;;51.83;29.00;;;;;;;;;;775186;181;918590;-61
2022/03/13 02:25:09;;;;;;;50.27;28.73;;;;;;;;;;773615;181;919025;-62
2022/03/13 02:27:35;;;;;;;49.23;26.77;;;;;;;;;;770789;181;1021148;-62
2022/03/13 02:30:01;;;;;;;55.97;28.02;;;;;;;;;;772814;181;919331;-61
2022/03/13 02:32:27;;;;;;;51.90;28.53;;;;;;;;;;771566;181;921984;-62
2022/03/13 02:34:52;;;;;;;51.57;27.90;;;;;;;;;;764849;179;919480;-62
2022/03/13 02:37:23;;;;;;;60.83;31.50;;;;;;;;;;765209;180;1019329;-61
2022/03/13 02:39:49;;;;;;;48.03;28.90;;;;;;;;;;777687;179;962787;-62
2022/03/13 02:42:15;;;;;;;46.50;28.53;;;;;;;;;;779760;177;943356;-62
2022/03/13 02:44:40;;;;;;;46.97;27.00;;;;;;;;;;776841;179;919607;-61
2022/03/13 02:47:07;;;;;;;50.77;27.73;;;;;;;;;;779774;179;919681;-62
2022/03/13 02:49:32;;;;;;;46.67;26.13;;;;;;;;;;773642;177;919055;-61
2022/03/13 02:51:58;;;;;;;45.27;26.90;;;;;;;;;;778098;179;919463;-62
2022/03/13 02:54:24;;;;;;;53.63;27.20;;;;;;;;;;771527;179;920172;-61
2022/03/13 02:56:50;;;;;;;46.03;27.07;;;;;;;;;;782538;180;919365;-61
2022/03/13 02:59:16;;;;;;;50.10;26.50;;;;;;;;;;778083;180;920702;-60
2022/03/13 03:01:42;;;;;;;52.10;25.70;;;;;;;;;;777635;179;919794;-60
2022/03/13 03:04:08;;;;;;;52.87;27.37;;;;;;;;;;779190;178;916197;-61
2022/03/13 03:06:34;;;;;;;45.13;26.60;;;;;;;;;;778573;177;916690;-62
2022/03/13 03:09:02;;;;;;;46.20;26.20;;;;;;;;;;776656;179;921088;-62
2022/03/13 03:11:27;;;;;;;48.35;26.65;;;;;;;;;;775313;180;919363;-61
2022/03/13 03:13:52;;;;;;;41.63;26.00;;;;;;;;;;769423;178;923853;-61
2022/03/13 03:16:18;;;;;;;44.57;25.33;;;;;;;;;;777878;179;1022987;-61
2022/03/13 03:18:44;;;;;;;45.37;27.20;;;;;;;;;;775916;180;919618;-61
2022/03/13 03:21:11;;;;;;;52.70;26.67;;;;;;;;;;779109;179;919904;-62
2022/03/13 03:23:36;;;;;;;44.33;26.90;;;;;;;;;;777536;179;919707;-62
2022/03/13 03:26:02;;;;;;;42.73;24.03;;;;;;;;;;777394;179;940486;-62
2022/03/13 03:28:27;;;;;;;48.60;25.10;;;;;;;;;;785355;179;627193;-62
2022/03/13 03:30:53;;;;;;;41.97;25.67;;;;;;;;;;784813;179;630665;-62
2022/03/13 03:33:19;;;;;;;47.87;25.10;;;;;;;;;;783497;179;623255;-62
2022/03/13 03:35:45;;;;;;;51.33;24.97;;;;;;;;;;784828;179;918383;-62
2022/03/13 03:38:11;;;;;;;38.10;24.17;;;;;;;;;;776867;179;622426;-62
2022/03/13 03:40:37;;;;;;;41.97;25.25;;;;;;;;;;775260;180;1021830;-62
2022/03/13 03:43:03;;;;;;;43.30;25.20;;;;;;;;;;780180;179;919291;-60
2022/03/13 03:45:29;;;;;;;44.00;25.10;;;;;;;;;;771748;181;917807;-62
2022/03/13 03:47:54;;;;;;;54.00;23.83;;;;;;;;;;758107;184;919485;-62
2022/03/13 03:50:20;;;;;;;44.83;24.37;;;;;;;;;;754150;184;918889;-62
2022/03/13 03:52:46;;;;;;;42.63;24.10;;;;;;;;;;765527;184;919557;-62
2022/03/13 03:55:12;;;;;;;44.13;22.73;;;;;;;;;;765719;179;919722;-61
2022/03/13 03:57:38;;;;;;;40.70;22.93;;;;;;;;;;779108;179;919661;-62
2022/03/13 04:00:05;;;;;;;37.33;22.87;;;;;;;;;;783471;180;920315;-62
2022/03/13 04:02:30;;;;;;;47.70;25.67;;;;;;;;;;778987;178;919782;-61
2022/03/13 04:04:56;;;;;;;41.17;25.30;;;;;;;;;;780504;178;920733;-61
2022/03/13 04:07:22;;;;;;;44.65;23.42;;;;;;;;;;778904;179;915901;-63
2022/03/13 04:09:48;;;;;;;41.53;23.00;;;;;;;;;;778579;179;917404;-62
2022/03/13 04:12:14;;;;;;;39.80;23.97;;;;;;;;;;775834;179;915276;-62
2022/03/13 04:14:40;;;;;;;43.17;23.73;;;;;;;;;;770569;178;919564;-62
2022/03/13 04:17:06;;;;;;;42.33;21.43;;;;;;;;;;779592;177;922165;-61
2022/03/13 04:19:31;;;;;;;38.87;23.17;;;;;;;;;;773939;179;920431;-62
2022/03/13 04:21:57;;;;;;;42.73;22.87;;;;;;;;;;774635;179;918805;-63
2022/03/13 04:24:23;;;;;;;40.50;24.67;;;;;;;;;;783470;177;915660;-61
2022/03/13 04:26:49;;;;;;;35.58;20.35;;;;;;;;;;776244;179;1021642;-63
2022/03/13 04:29:16;;;;;;;38.33;22.20;;;;;;;;;;777005;179;920148;-61
2022/03/13 04:31:41;;;;;;;39.50;21.60;;;;;;;;;;782761;180;919892;-62
2022/03/13 04:34:06;;;;;;;35.10;20.70;;;;;;;;;;775678;179;919246;-62
2022/03/13 04:36:33;;;;;;;35.47;21.50;;;;;;;;;;775886;179;918632;-64
2022/03/13 04:38:59;;;;;;;37.07;22.63;;;;;;;;;;775345;180;928872;-61
2022/03/13 04:41:25;;;;;;;37.30;20.87;;;;;;;;;;784441;179;918872;-62
2022/03/13 04:43:52;;;;;;;33.10;20.30;;;;;;;;;;778180;177;919542;-62
2022/03/13 04:46:16;;;;;;;40.92;20.25;;;;;;;;;;773731;179;933625;-62
2022/03/13 04:48:42;;;;;;;32.73;20.00;;;;;;;;;;773163;180;919473;-62
2022/03/13 04:51:08;;;;;;;37.27;19.30;;;;;;;;;;777170;180;920951;-62
2022/03/13 04:53:34;;;;;;;34.40;20.87;;;;;;;;;;776863;179;919326;-62
2022/03/13 04:56:00;;;;;;;36.60;20.80;;;;;;;;;;782915;179;919311;-62
2022/03/13 04:58:26;;;;;;;38.17;20.90;;;;;;;;;;774630;179;919736;-62
2022/03/13 05:00:51;;;;;;;38.60;22.53;;;;;;;;;;775752;179;1020776;-61
2022/03/13 05:03:17;;;;;;;43.30;21.17;;;;;;;;;;777729;180;919648;-61
2022/03/13 05:05:43;;;;;;;35.90;21.50;;;;;;;;;;768274;182;919234;-61
2022/03/13 05:08:13;;;;;;;38.40;22.00;;;;;;;;;;772253;179;919214;-61
2022/03/13 05:10:36;;;;;;;37.38;21.73;;;;;;;;;;777145;179;919472;-61
2022/03/13 05:13:03;;;;;;;35.20;22.17;;;;;;;;;;781045;179;918662;-62
2022/03/13 05:15:29;;;;;;;37.00;22.00;;;;;;;;;;774768;179;920435;-61
2022/03/13 05:17:55;;;;;;;40.40;23.10;;;;;;;;;;775953;179;919229;-61
2022/03/13 05:20:21;;;;;;;36.57;20.37;;;;;;;;;;780002;179;919890;-62
2022/03/13 05:22:47;;;;;;;44.20;23.73;;;;;;;;;;775851;178;919823;-62
2022/03/13 05:25:13;;;;;;;40.73;21.57;;;;;;;;;;778443;179;888783;-60
2022/03/13 05:27:39;;;;;;;41.00;23.27;;;;;;;;;;776550;179;919809;-62
2022/03/13 05:30:05;;;;;;;43.40;23.27;;;;;;;;;;764254;182;918631;-63
2022/03/13 05:32:33;;;;;;;34.63;22.10;;;;;;;;;;751588;184;1224526;-61
2022/03/13 05:34:57;;;;;;;33.43;21.20;;;;;;;;;;773100;179;956833;-62
2022/03/13 05:37:23;;;;;;;35.33;21.87;;;;;;;;;;782485;179;871130;-62
2022/03/13 05:39:48;;;;;;;36.53;21.70;;;;;;;;;;774071;179;925846;-62
2022/03/13 05:42:14;;;;;;;43.57;22.10;;;;;;;;;;776771;179;917722;-62
2022/03/13 05:44:40;;;;;;;40.77;21.57;;;;;;;;;;781405;179;914977;-62
2022/03/13 05:47:06;;;;;;;36.88;23.05;;;;;;;;;;776193;179;919741;-61
2022/03/13 05:49:32;;;;;;;39.80;21.83;;;;;;;;;;776239;179;1022395;-62
2022/03/13 05:51:58;;;;;;;35.67;21.37;;;;;;;;;;773952;179;919336;-59
2022/03/13 05:54:24;;;;;;;36.35;22.98;;;;;;;;;;763693;182;920540;-63
2022/03/13 05:56:50;;;;;;;37.43;20.73;;;;;;;;;;755931;181;1020381;-65
2022/03/13 05:59:15;;;;;;;38.33;22.43;;;;;;;;;;741871;185;930043;-60
2022/03/13 06:01:42;;;;;;;32.20;19.13;;;;;;;;;;777086;179;921777;-60
2022/03/13 06:04:08;;;;;;;40.67;22.70;;;;;;;;;;775836;179;919212;-62
2022/03/13 06:06:34;;;;;;;39.03;22.33;;;;;;;;;;776919;179;917262;-61
2022/03/13 06:08:59;;;;;;;42.07;25.70;;;;;;;;;;781500;178;918973;-61
2022/03/13 06:11:24;;;;;;;43.57;25.97;;;;;;;;;;774698;180;1021256;-62
2022/03/13 06:13:50;;;;;;;56.13;31.30;;;;;;;;;;775412;179;914650;-62
2022/03/13 06:16:16;;;;;;;46.10;32.20;;;;;;;;;;781489;178;919113;-62
2022/03/13 06:18:42;;;;;;;53.80;32.28;;;;;;;;;;777396;177;914437;-60
2022/03/13 06:21:08;;;;;;;66.60;47.80;;;;;;;;;;774045;179;919133;-61
2022/03/13 06:23:34;;;;;;;51.73;34.57;;;;;;;;;;775981;179;971361;-63
2022/03/13 06:26:00;;;;;;;187.20;92.60;;;;;;;;;;782678;179;902028;-62
2022/03/13 06:28:26;;;;;;;256.13;114.80;;;;;;;;;;774800;180;919034;-61
2022/03/13 06:30:51;;;;;;;113.87;59.93;;;;;;;;;;778199;177;920364;-61
2022/03/13 06:33:17;;;;;;;81.17;43.47;;;;;;;;;;784523;179;916002;-61
2022/03/13 06:35:43;;;;;;;209.18;102.55;;;;;;;;;;773100;178;916740;-61
2022/03/13 06:38:09;;;;;;;45.00;25.60;;;;;;;;;;776558;178;920741;-62
2022/03/13 06:40:35;;;;;;;49.47;29.90;;;;;;;;;;779799;178;925059;-61
2022/03/13 06:43:00;;;;;;;44.90;22.47;;;;;;;;;;774219;177;920418;-61
2022/03/13 06:45:27;;;;;;;62.88;33.72;;;;;;;;;;774678;179;921018;-61
2022/03/13 06:47:52;;;;;;;56.67;31.80;;;;;;;;;;777278;179;918972;-62
2022/03/13 06:50:18;;;;;;;36.83;24.33;;;;;;;;;;775414;179;919432;-61
2022/03/13 06:52:44;;;;;;;66.03;36.87;;;;;;;;;;774886;179;920874;-62
2022/03/13 06:55:13;;;;;;;38.37;22.40;;;;;;;;;;775029;179;919720;-63
2022/03/13 06:57:36;;;;;;;44.50;29.30;;;;;;;;;;779467;177;919950;-63
2022/03/13 07:00:02;;;;;;;36.33;20.73;;;;;;;;;;774331;179;919808;-63
2022/03/13 07:02:28;;;;;;;32.87;23.00;;;;;;;;;;772854;180;919571;-61
2022/03/13 07:04:53;;;;;;;52.37;33.40;;;;;;;;;;778733;178;921233;-62
2022/03/13 07:07:19;;;;;;;69.33;36.57;;;;;;;;;;773800;179;919338;-62
2022/03/13 07:09:45;;;;;;;49.70;27.07;;;;;;;;;;775363;180;918741;-63
2022/03/13 07:12:12;;;;;;;48.43;26.57;;;;;;;;;;779190;179;920248;-61
2022/03/13 07:14:38;;;;;;;26.83;15.50;;;;;;;;;;776776;179;918894;-63
2022/03/13 07:17:04;;;;;;;30.30;17.20;;;;;;;;;;771696;177;919562;-64
2022/03/13 07:19:30;;;;;;;25.53;14.27;;;;;;;;;;772799;180;918148;-63
2022/03/13 07:21:56;;;;;;;39.40;13.37;;;;;;;;;;778814;177;917508;-63
2022/03/13 07:24:21;;;;;;;22.17;12.20;;;;;;;;;;776146;179;919540;-64
2022/03/13 07:26:47;;;;;;;181.47;74.67;;;;;;;;;;773994;179;920349;-66
2022/03/13 07:29:13;;;;;;;28.57;15.00;;;;;;;;;;782421;178;914005;-65
2022/03/13 07:31:39;;;;;;;26.20;13.43;;;;;;;;;;775354;178;942921;-65
2022/03/13 07:34:05;;;;;;;144.37;63.60;;;;;;;;;;778105;179;918492;-65
2022/03/13 07:36:31;;;;;;;66.83;31.00;;;;;;;;;;781155;179;919400;-66
2022/03/13 07:38:57;;;;;;;75.17;32.17;;;;;;;;;;772904;178;1042168;-66
2022/03/13 07:41:23;;;;;;;91.53;41.37;;;;;;;;;;775259;179;920889;-66
2022/03/13 07:43:49;;;;;;;49.87;25.63;;;;;;;;;;775148;179;920213;-66
2022/03/13 07:46:14;;;;;;;23.40;11.17;;;;;;;;;;781314;179;919875;-66
2022/03/13 07:48:43;;;;;;;184.73;69.67;;;;;;;;;;776068;179;919380;-67
2022/03/13 07:51:07;;;;;;;39.50;19.13;;;;;;;;;;774327;179;919370;-66
2022/03/13 07:53:32;;;;;;;79.33;31.87;;;;;;;;;;778391;179;910357;-67
2022/03/13 07:55:58;;;;;;;77.83;37.00;;;;;;;;;;774847;179;919426;-66
2022/03/13 07:58:24;;;;;;;75.53;32.73;;;;;;;;;;773723;179;924563;-66
2022/03/13 08:00:50;;;;;;;196.50;77.83;;;;;;;;;;776833;179;918770;-66
2022/03/13 08:03:20;;;;;;;63.03;27.03;;;;;;;;;;775577;179;879514;-66
2022/03/13 08:05:41;;;;;;;19.43;13.63;;;;;;;;;;773649;179;993732;-65
2022/03/13 08:08:07;;;;;;;19.03;11.03;;;;;;;;;;773987;179;917603;-66
2022/03/13 08:10:33;;;;;;;30.90;14.43;;;;;;;;;;784039;179;628527;-65
2022/03/13 08:12:59;;;;;;;20.93;10.10;;;;;;;;;;779725;178;635275;-66
2022/03/13 08:15:25;;;;;;;19.87;11.40;;;;;;;;;;775050;180;620004;-66
2022/03/13 08:17:51;;;;;;;23.43;13.33;;;;;;;;;;780317;179;631743;-66
2022/03/13 08:20:16;;;;;;;14.90;8.83;;;;;;;;;;777210;177;631044;-65
2022/03/13 08:22:42;;;;;;;16.20;8.13;;;;;;;;;;776756;177;615107;-66
2022/03/13 08:25:08;;;;;;;19.73;9.80;;;;;;;;;;783751;179;640673;-66
2022/03/13 08:27:34;;;;;;;14.97;8.37;;;;;;;;;;779557;179;618650;-66
2022/03/13 08:30:00;;;;;;;14.50;9.70;;;;;;;;;;781718;177;623592;-66
2022/03/13 08:32:26;;;;;;;20.80;12.02;;;;;;;;;;778446;180;633359;-65
2022/03/13 08:34:53;;;;;;;18.07;9.97;;;;;;;;;;772066;179;689045;-67
2022/03/13 08:37:18;;;;;;;17.33;11.27;;;;;;;;;;777105;179;665761;-66
2022/03/13 08:39:44;;;;;;;13.90;7.60;;;;;;;;;;776015;178;916357;-66
2022/03/13 08:42:10;;;;;;;18.37;10.90;;;;;;;;;;771505;182;915704;-66
2022/03/13 08:44:36;;;;;;;15.00;8.70;;;;;;;;;;771822;178;919485;-66
2022/03/13 08:47:02;;;;;;;30.33;15.00;;;;;;;;;;780221;179;919724;-67
2022/03/13 08:49:29;;;;;;;20.42;10.20;;;;;;;;;;783850;177;919096;-67
2022/03/13 08:51:54;;;;;;;14.07;7.97;;;;;;;;;;778984;179;919460;-67
2022/03/13 08:54:20;;;;;;;13.57;6.73;;;;;;;;;;779104;179;918949;-67
2022/03/13 08:56:48;;;;;;;12.13;6.60;;;;;;;;;;782744;179;919769;-66
2022/03/13 08:59:12;;;;;;;13.57;8.07;;;;;;;;;;777322;179;884087;-66
2022/03/13 09:01:37;;;;;;;24.23;10.40;;;;;;;;;;762132;179;919847;-66
2022/03/13 09:04:03;;;;;;;20.90;11.03;;;;;;;;;;765812;179;920679;-66
2022/03/13 09:06:29;;;;;;;57.60;24.93;;;;;;;;;;779802;180;919552;-66
2022/03/13 09:08:55;;;;;;;16.43;9.40;;;;;;;;;;778306;180;935577;-66
2022/03/13 09:11:21;;;;;;;78.65;41.65;;;;;;;;;;777935;177;980452;-66
2022/03/13 09:13:47;;;;;;;14.23;7.80;;;;;;;;;;777369;179;919566;-66
2022/03/13 09:16:13;;;;;;;94.00;45.13;;;;;;;;;;775947;179;927541;-66
2022/03/13 09:18:39;;;;;;;11.27;7.27;;;;;;;;;;771427;178;927672;-66
2022/03/13 09:21:04;;;;;;;17.57;11.30;;;;;;;;;;780626;179;919430;-67
2022/03/13 09:23:31;;;;;;;14.03;6.70;;;;;;;;;;776605;179;919739;-66
2022/03/13 09:25:56;;;;;;;15.20;8.10;;;;;;;;;;773746;179;919517;-67
2022/03/13 09:28:22;;;;;;;12.77;6.07;;;;;;;;;;773067;178;919185;-66
2022/03/13 09:30:48;;;;;;;32.33;19.08;;;;;;;;;;765033;181;919597;-67
2022/03/13 09:33:14;;;;;;;12.83;7.27;;;;;;;;;;773104;179;920367;-67
2022/03/13 09:35:39;;;;;;;16.30;6.77;;;;;;;;;;772960;179;919261;-67
2022/03/13 09:38:05;;;;;;;14.10;8.23;;;;;;;;;;782677;179;919205;-67
2022/03/13 09:40:33;;;;;;;13.03;8.30;;;;;;;;;;777471;179;919334;-67
2022/03/13 09:42:57;;;;;;;15.40;7.70;;;;;;;;;;776756;179;919424;-67
2022/03/13 09:45:23;;;;;;;17.10;6.40;;;;;;;;;;781667;180;916817;-68
2022/03/13 09:47:49;;;;;;;14.73;6.90;;;;;;;;;;773281;180;818026;-68
2022/03/13 09:50:15;;;;;;;11.87;7.43;;;;;;;;;;778134;179;616649;-68
2022/03/13 09:52:41;;;;;;;13.52;7.10;;;;;;;;;;783905;178;626000;-68
2022/03/13 09:55:08;;;;;;;13.07;7.03;;;;;;;;;;777591;179;622982;-68
2022/03/13 09:57:36;;;;;;;8.73;6.03;;;;;;;;;;778362;177;641674;-68
2022/03/13 09:59:59;;;;;;;11.43;7.80;;;;;;;;;;779344;178;632905;-68
2022/03/13 10:02:31;;;;;;;11.00;6.07;;;;;;;;;;784210;179;917933;-68
2022/03/13 10:04:57;;;;;;;9.83;6.50;;;;;;;;;;778265;179;918373;-68
2022/03/13 10:07:23;;;;;;;9.63;6.60;;;;;;;;;;777623;178;816790;-68
2022/03/13 10:09:49;;;;;;;9.82;6.35;;;;;;;;;;781002;179;921468;-67
2022/03/13 10:12:16;;;;;;;10.40;5.80;;;;;;;;;;769123;179;920193;-68
2022/03/13 10:14:47;;;;;;;13.63;7.10;;;;;;;;;;775667;180;919175;-68
2022/03/13 10:17:20;;;;;;;12.90;6.60;;;;;;;;;;775167;177;928152;-69
2022/03/13 10:19:44;;;;;;;10.57;6.22;;;;;;;;;;776463;178;919246;-68
2022/03/13 10:22:10;;;;;;;11.20;6.50;;;;;;;;;;767715;180;919427;-70
2022/03/13 10:24:38;;;;;;;10.43;7.15;;;;;;;;;;768804;179;919700;-69
2022/03/13 10:27:04;;;;;;;10.70;6.57;;;;;;;;;;776476;179;919634;-69
2022/03/13 10:29:30;;;;;;;9.70;6.47;;;;;;;;;;778616;177;919872;-69
2022/03/13 10:31:57;;;;;;;10.63;6.50;;;;;;;;;;778141;179;920166;-69
2022/03/13 10:34:23;;;;;;;13.73;6.40;;;;;;;;;;776720;178;919603;-68
2022/03/13 10:36:50;;;;;;;9.63;5.43;;;;;;;;;;779212;179;915855;-68
2022/03/13 10:39:17;;;;;;;12.10;6.63;;;;;;;;;;776151;179;916017;-68
2022/03/13 10:41:44;;;;;;;11.97;6.73;;;;;;;;;;775473;179;922368;-69
2022/03/13 10:44:09;;;;;;;9.10;6.43;;;;;;;;;;772217;180;915634;-69
2022/03/13 10:46:35;;;;;;;11.33;6.90;;;;;;;;;;776941;179;916921;-67
2022/03/13 10:49:05;;;;;;;11.80;6.60;;;;;;;;;;776131;179;915394;-68
2022/03/13 10:51:33;;;;;;;11.43;7.20;;;;;;;;;;772779;179;932518;-69
2022/03/13 10:53:59;;;;;;;14.30;7.60;;;;;;;;;;780855;179;920676;-69
2022/03/13 10:56:27;;;;;;;10.27;6.60;;;;;;;;;;776575;177;918425;-68
2022/03/13 10:58:52;;;;;;;9.40;6.20;;;;;;;;;;775258;179;912428;-70
2022/03/13 11:01:17;;;;;;;10.77;6.27;;;;;;;;;;774315;179;918830;-69
2022/03/13 11:03:49;;;;;;;10.13;5.90;;;;;;;;;;781167;178;1014887;-69
2022/03/13 11:06:15;;;;;;;7.60;5.30;;;;;;;;;;775724;179;918760;-71
2022/03/13 11:08:41;;;;;;;7.77;5.60;;;;;;;;;;775967;179;920398;-69
2022/03/13 11:11:06;;;;;;;12.20;6.77;;;;;;;;;;766366;179;916795;-69
2022/03/13 11:13:32;;;;;;;8.67;5.47;;;;;;;;;;776328;179;918553;-70
2022/03/13 11:15:58;;;;;;;11.50;5.70;;;;;;;;;;771699;179;917575;-69
2022/03/13 11:18:25;;;;;;;9.73;5.70;;;;;;;;;;773222;178;917302;-70
2022/03/13 11:20:52;;;;;;;10.20;4.97;;;;;;;;;;780916;179;915556;-69
2022/03/13 11:23:18;;;;;;;10.10;5.07;;;;;;;;;;774318;178;920144;-69
2022/03/13 11:25:44;;;;;;;10.57;5.87;;;;;;;;;;775654;179;1016799;-69
2022/03/13 11:28:09;;;;;;;8.40;5.20;;;;;;;;;;782153;179;919391;-68
2022/03/13 11:30:36;;;;;;;8.87;6.07;;;;;;;;;;776603;179;920685;-68
2022/03/13 11:33:02;;;;;;;10.67;6.83;;;;;;;;;;769705;179;1723854;-69
2022/03/13 11:35:28;;;;;;;10.13;6.73;;;;;;;;;;784073;177;920089;-68
2022/03/13 11:37:55;;;;;;;11.67;5.80;;;;;;;;;;772383;179;915563;-68
2022/03/13 11:40:26;;;;;;;10.63;5.37;;;;;;;;;;774450;179;912640;-68
2022/03/13 11:42:54;;;;;;;10.03;5.10;;;;;;;;;;775131;180;919460;-68
2022/03/13 11:45:24;;;;;;;9.87;5.97;;;;;;;;;;777234;179;918936;-68
2022/03/13 11:47:50;;;;;;;9.97;5.63;;;;;;;;;;776390;180;919110;-68
2022/03/13 11:50:16;;;;;;;10.57;5.40;;;;;;;;;;776938;177;919686;-69
2022/03/13 11:52:42;;;;;;;10.37;6.10;;;;;;;;;;779123;179;631375;-68
2022/03/13 11:55:10;;;;;;;7.90;5.63;;;;;;;;;;784492;179;638842;-68
2022/03/13 11:57:39;;;;;;;10.63;6.10;;;;;;;;;;778584;179;918968;-68
2022/03/13 12:00:28;;;;;;;10.37;6.23;;;;;;;;;;775584;179;1020774;-68
2022/03/13 12:02:51;;;;;;;9.53;5.27;;;;;;;;;;774914;179;919395;-68
2022/03/13 12:05:23;;;;;;;11.33;5.87;;;;;;;;;;767173;180;919382;-68
2022/03/13 12:07:52;;;;;;;10.60;5.17;;;;;;;;;;778811;179;919425;-68
2022/03/13 12:10:24;;;;;;;11.65;6.10;;;;;;;;;;770168;179;926384;-69
2022/03/13 12:12:55;;;;;;;9.40;5.47;;;;;;;;;;776887;179;919337;-69
2022/03/13 12:15:21;;;;;;;11.00;5.50;;;;;;;;;;779991;178;918586;-69
2022/03/13 12:17:47;;;;;;;9.37;5.20;;;;;;;;;;781163;179;919431;-69
2022/03/13 12:20:19;;;;;;;10.17;5.93;;;;;;;;;;777220;179;921325;-69
2022/03/13 12:22:45;;;;;;;12.17;6.27;;;;;;;;;;771748;179;1289119;-69
2022/03/13 12:25:12;;;;;;;12.43;6.13;;;;;;;;;;776504;178;918947;-69
2022/03/13 12:27:37;;;;;;;7.63;5.50;;;;;;;;;;779959;179;928956;-68
2022/03/13 12:30:03;;;;;;;12.33;5.97;;;;;;;;;;772987;180;949460;-69
2022/03/13 12:32:29;;;;;;;15.87;5.63;;;;;;;;;;772427;179;930070;-68
2022/03/13 12:34:56;;;;;;;15.07;5.80;;;;;;;;;;780722;179;920508;-68
2022/03/13 12:37:20;;;;;;;8.80;5.17;;;;;;;;;;775811;179;919690;-68
2022/03/13 12:39:47;;;;;;;11.50;5.73;;;;;;;;;;772221;179;921615;-68
2022/03/13 12:42:13;;;;;;;10.63;5.40;;;;;;;;;;771157;179;920002;-68
2022/03/13 12:44:39;;;;;;;7.35;5.25;;;;;;;;;;781178;179;918771;-68
2022/03/13 12:47:05;;;;;;;6.90;5.43;;;;;;;;;;771578;177;919037;-68
2022/03/13 12:49:31;;;;;;;11.30;6.33;;;;;;;;;;771392;180;994455;-68
2022/03/13 12:51:57;;;;;;;9.18;5.90;;;;;;;;;;777796;179;969557;-68
2022/03/13 12:54:27;;;;;;;11.15;5.82;;;;;;;;;;775758;179;918993;-68
2022/03/13 12:56:52;;;;;;;18.30;6.30;;;;;;;;;;777288;178;630931;-69
2022/03/13 12:59:24;;;;;;;7.60;5.63;;;;;;;;;;776701;179;917928;-68
2022/03/13 13:02:05;;;;;;;11.30;7.23;;;;;;;;;;775498;179;919800;-68
2022/03/13 13:04:31;;;;;;;10.87;4.93;;;;;;;;;;784267;179;629225;-68
2022/03/13 13:06:57;;;;;;;10.40;7.23;;;;;;;;;;778126;178;639436;-68
2022/03/13 13:09:26;;;;;;;11.43;6.17;;;;;;;;;;772243;181;918669;-68
2022/03/13 13:11:52;;;;;;;10.83;7.03;;;;;;;;;;777271;179;919347;-68
2022/03/13 13:14:18;;;;;;;8.37;5.23;;;;;;;;;;779410;179;916867;-69
2022/03/13 13:16:43;;;;;;;9.83;5.93;;;;;;;;;;777571;180;919638;-69
2022/03/13 13:19:09;;;;;;;14.67;5.87;;;;;;;;;;779056;180;918843;-70
2022/03/13 13:21:35;;;;;;;9.33;5.23;;;;;;;;;;774561;179;902270;-69
2022/03/13 13:24:01;;;;;;;14.03;5.37;;;;;;;;;;773269;180;919389;-69
2022/03/13 13:26:34;;;;;;;8.73;5.10;;;;;;;;;;773418;178;919300;-69
2022/03/13 13:28:58;;;;;;;7.90;4.73;;;;;;;;;;781954;179;1021075;-68
2022/03/13 13:31:24;;;;;;;8.00;4.73;;;;;;;;;;778857;179;918753;-68
2022/03/13 13:33:50;;;;;;;7.90;4.70;;;;;;;;;;771870;177;920319;-68
2022/03/13 13:36:16;;;;;;;9.18;5.60;;;;;;;;;;776641;179;919720;-67
2022/03/13 13:38:42;;;;;;;9.73;4.87;;;;;;;;;;775677;179;919042;-68
2022/03/13 13:41:09;;;;;;;12.17;4.30;;;;;;;;;;774503;178;947775;-68
2022/03/13 13:43:34;;;;;;;8.20;4.70;;;;;;;;;;774450;179;927984;-69
2022/03/13 13:46:00;;;;;;;8.00;4.97;;;;;;;;;;783725;179;634134;-68
2022/03/13 13:48:26;;;;;;;6.80;4.40;;;;;;;;;;779908;179;619706;-68
2022/03/13 13:51:13;;;;;;;10.10;6.00;;;;;;;;;;777380;179;1021521;-70
2022/03/13 13:53:42;;;;;;;9.10;5.43;;;;;;;;;;769002;179;919233;-69
2022/03/13 13:56:10;;;;;;;7.10;4.63;;;;;;;;;;776745;179;901039;-68
2022/03/13 13:58:36;;;;;;;9.30;4.27;;;;;;;;;;780689;180;918008;-69
2022/03/13 14:01:02;;;;;;;9.60;5.37;;;;;;;;;;775539;179;919341;-69
2022/03/13 14:03:27;;;;;;;9.20;4.40;;;;;;;;;;774936;178;919123;-68